sensor_id;sensor_type;location;lat;lon;timestamp;P1;durP1;ratioP1;P2;durP2;ratioP2
77948;SDS011;67146;51.236;-0.336;2023-04-15T00:01:23;20.88;;;7.13;;
77948;SDS011;67146;51.236;-0.336;2023-04-15T00:03:52;21.80;;;7.32;;
77948;SDS011;67146;51.236;-0.336;2023-04-15T00:06:18;20.23;;;7.20;;
77948;SDS011;67146;51.236;-0.336;2023-04-15T00:08:44;16.63;;;6.68;;
77948;SDS011;67146;51.236;-0.336;2023-04-15T00:11:10;17.67;;;7.07;;
77948;SDS011;67146;51.236;-0.336;2023-04-15T00:13:36;22.83;;;8.40;;
77948;SDS011;67146;51.236;-0.336;2023-04-15T00:16:02;25.23;;;7.88;;
77948;SDS011;67146;51.236;-0.336;2023-04-15T00:18:28;17.45;;;6.78;;
77948;SDS011;67146;51.236;-0.336;2023-04-15T00:20:53;16.05;;;6.28;;
77948;SDS011;67146;51.236;-0.336;2023-04-15T00:23:19;19.42;;;7.05;;
77948;SDS011;67146;51.236;-0.336;2023-04-15T00:25:45;18.40;;;6.40;;
77948;SDS011;67146;51.236;-0.336;2023-04-15T00:28:10;18.58;;;6.22;;
77948;SDS011;67146;51.236;-0.336;2023-04-15T00:30:36;17.08;;;7.53;;
77948;SDS011;67146;51.236;-0.336;2023-04-15T00:33:02;16.63;;;5.47;;
77948;SDS011;67146;51.236;-0.336;2023-04-15T00:35:27;12.48;;;5.18;;
77948;SDS011;67146;51.236;-0.336;2023-04-15T00:37:53;13.85;;;5.03;;
77948;SDS011;67146;51.236;-0.336;2023-04-15T00:40:19;12.80;;;6.17;;
77948;SDS011;67146;51.236;-0.336;2023-04-15T00:42:45;15.82;;;5.47;;
77948;SDS011;67146;51.236;-0.336;2023-04-15T00:45:11;13.20;;;5.45;;
77948;SDS011;67146;51.236;-0.336;2023-04-15T00:47:37;12.13;;;5.88;;
77948;SDS011;67146;51.236;-0.336;2023-04-15T00:50:04;13.75;;;5.50;;
77948;SDS011;67146;51.236;-0.336;2023-04-15T00:52:29;14.05;;;6.05;;
77948;SDS011;67146;51.236;-0.336;2023-04-15T00:54:56;15.27;;;6.45;;
77948;SDS011;67146;51.236;-0.336;2023-04-15T00:57:21;16.50;;;5.88;;
77948;SDS011;67146;51.236;-0.336;2023-04-15T00:59:47;15.40;;;6.10;;
77948;SDS011;67146;51.236;-0.336;2023-04-15T01:02:12;16.50;;;5.82;;
77948;SDS011;67146;51.236;-0.336;2023-04-15T01:04:39;15.25;;;5.72;;
77948;SDS011;67146;51.236;-0.336;2023-04-15T01:07:04;14.35;;;6.00;;
77948;SDS011;67146;51.236;-0.336;2023-04-15T01:09:29;13.83;;;5.73;;
77948;SDS011;67146;51.236;-0.336;2023-04-15T01:11:55;14.07;;;5.30;;
77948;SDS011;67146;51.236;-0.336;2023-04-15T01:14:21;13.60;;;4.85;;
77948;SDS011;67146;51.236;-0.336;2023-04-15T01:16:46;14.15;;;5.00;;
77948;SDS011;67146;51.236;-0.336;2023-04-15T01:19:11;12.33;;;4.73;;
77948;SDS011;67146;51.236;-0.336;2023-04-15T01:21:38;12.73;;;4.57;;
77948;SDS011;67146;51.236;-0.336;2023-04-15T01:24:08;12.18;;;4.90;;
77948;SDS011;67146;51.236;-0.336;2023-04-15T01:26:36;12.35;;;4.63;;
77948;SDS011;67146;51.236;-0.336;2023-04-15T01:29:02;11.50;;;4.75;;
77948;SDS011;67146;51.236;-0.336;2023-04-15T01:31:27;13.40;;;4.65;;
77948;SDS011;67146;51.236;-0.336;2023-04-15T01:33:53;12.73;;;4.33;;
77948;SDS011;67146;51.236;-0.336;2023-04-15T01:36:18;12.47;;;4.90;;
77948;SDS011;67146;51.236;-0.336;2023-04-15T01:38:43;11.40;;;4.75;;
77948;SDS011;67146;51.236;-0.336;2023-04-15T01:41:09;10.55;;;4.32;;
77948;SDS011;67146;51.236;-0.336;2023-04-15T01:43:35;13.65;;;4.60;;
77948;SDS011;67146;51.236;-0.336;2023-04-15T01:46:01;11.70;;;4.85;;
77948;SDS011;67146;51.236;-0.336;2023-04-15T01:48:27;11.82;;;4.75;;
77948;SDS011;67146;51.236;-0.336;2023-04-15T01:50:53;11.97;;;4.40;;
77948;SDS011;67146;51.236;-0.336;2023-04-15T01:53:19;9.65;;;3.80;;
77948;SDS011;67146;51.236;-0.336;2023-04-15T01:55:44;10.45;;;4.05;;
77948;SDS011;67146;51.236;-0.336;2023-04-15T01:58:10;11.25;;;3.90;;
77948;SDS011;67146;51.236;-0.336;2023-04-15T02:00:35;11.32;;;4.07;;
77948;SDS011;67146;51.236;-0.336;2023-04-15T02:03:01;8.75;;;3.67;;
77948;SDS011;67146;51.236;-0.336;2023-04-15T02:05:26;10.23;;;3.50;;
77948;SDS011;67146;51.236;-0.336;2023-04-15T02:07:51;13.30;;;4.63;;
77948;SDS011;67146;51.236;-0.336;2023-04-15T02:10:17;11.77;;;4.55;;
77948;SDS011;67146;51.236;-0.336;2023-04-15T02:12:43;10.23;;;3.20;;
77948;SDS011;67146;51.236;-0.336;2023-04-15T02:15:08;12.00;;;4.90;;
77948;SDS011;67146;51.236;-0.336;2023-04-15T02:17:35;12.90;;;4.63;;
77948;SDS011;67146;51.236;-0.336;2023-04-15T02:20:01;12.27;;;4.55;;
77948;SDS011;67146;51.236;-0.336;2023-04-15T02:22:29;8.60;;;3.20;;
77948;SDS011;67146;51.236;-0.336;2023-04-15T02:24:54;11.75;;;4.22;;
77948;SDS011;67146;51.236;-0.336;2023-04-15T02:27:19;10.43;;;4.07;;
77948;SDS011;67146;51.236;-0.336;2023-04-15T02:29:46;10.20;;;3.45;;
77948;SDS011;67146;51.236;-0.336;2023-04-15T02:32:12;9.93;;;3.25;;
77948;SDS011;67146;51.236;-0.336;2023-04-15T02:34:38;8.27;;;3.10;;
77948;SDS011;67146;51.236;-0.336;2023-04-15T02:37:05;7.80;;;2.60;;
77948;SDS011;67146;51.236;-0.336;2023-04-15T02:39:31;8.80;;;3.35;;
77948;SDS011;67146;51.236;-0.336;2023-04-15T02:41:57;9.70;;;3.58;;
77948;SDS011;67146;51.236;-0.336;2023-04-15T02:44:24;10.18;;;3.72;;
77948;SDS011;67146;51.236;-0.336;2023-04-15T02:46:49;9.50;;;3.58;;
77948;SDS011;67146;51.236;-0.336;2023-04-15T02:49:16;9.70;;;3.60;;
77948;SDS011;67146;51.236;-0.336;2023-04-15T02:51:42;10.15;;;3.70;;
77948;SDS011;67146;51.236;-0.336;2023-04-15T02:54:08;11.82;;;4.10;;
77948;SDS011;67146;51.236;-0.336;2023-04-15T02:56:33;12.05;;;4.22;;
77948;SDS011;67146;51.236;-0.336;2023-04-15T02:58:59;11.52;;;4.03;;
77948;SDS011;67146;51.236;-0.336;2023-04-15T03:01:24;9.43;;;3.63;;
77948;SDS011;67146;51.236;-0.336;2023-04-15T03:03:50;11.23;;;3.30;;
77948;SDS011;67146;51.236;-0.336;2023-04-15T03:06:15;9.75;;;3.85;;
77948;SDS011;67146;51.236;-0.336;2023-04-15T03:08:41;12.10;;;3.97;;
77948;SDS011;67146;51.236;-0.336;2023-04-15T03:11:06;11.07;;;3.50;;
77948;SDS011;67146;51.236;-0.336;2023-04-15T03:13:32;12.30;;;3.47;;
77948;SDS011;67146;51.236;-0.336;2023-04-15T03:15:57;8.40;;;2.85;;
77948;SDS011;67146;51.236;-0.336;2023-04-15T03:18:23;7.30;;;2.05;;
77948;SDS011;67146;51.236;-0.336;2023-04-15T03:20:48;8.60;;;2.40;;
77948;SDS011;67146;51.236;-0.336;2023-04-15T03:23:13;7.03;;;2.00;;
77948;SDS011;67146;51.236;-0.336;2023-04-15T03:25:39;7.25;;;2.20;;
77948;SDS011;67146;51.236;-0.336;2023-04-15T03:28:05;7.15;;;2.03;;
77948;SDS011;67146;51.236;-0.336;2023-04-15T03:30:30;7.63;;;2.20;;
77948;SDS011;67146;51.236;-0.336;2023-04-15T03:32:55;7.35;;;2.50;;
77948;SDS011;67146;51.236;-0.336;2023-04-15T03:35:21;6.90;;;2.00;;
77948;SDS011;67146;51.236;-0.336;2023-04-15T03:37:46;5.93;;;1.97;;
77948;SDS011;67146;51.236;-0.336;2023-04-15T03:40:13;7.32;;;2.08;;
77948;SDS011;67146;51.236;-0.336;2023-04-15T03:42:38;6.63;;;2.20;;
77948;SDS011;67146;51.236;-0.336;2023-04-15T03:45:04;7.37;;;2.63;;
77948;SDS011;67146;51.236;-0.336;2023-04-15T03:47:29;7.55;;;2.22;;
77948;SDS011;67146;51.236;-0.336;2023-04-15T03:49:56;7.53;;;2.10;;
77948;SDS011;67146;51.236;-0.336;2023-04-15T03:52:21;8.27;;;2.67;;
77948;SDS011;67146;51.236;-0.336;2023-04-15T03:54:46;8.20;;;2.80;;
77948;SDS011;67146;51.236;-0.336;2023-04-15T03:57:12;7.60;;;2.80;;
77948;SDS011;67146;51.236;-0.336;2023-04-15T03:59:37;7.67;;;2.40;;
77948;SDS011;67146;51.236;-0.336;2023-04-15T04:02:02;7.87;;;2.87;;
77948;SDS011;67146;51.236;-0.336;2023-04-15T04:04:27;6.97;;;2.17;;
77948;SDS011;67146;51.236;-0.336;2023-04-15T04:06:55;7.85;;;2.50;;
77948;SDS011;67146;51.236;-0.336;2023-04-15T04:09:20;8.07;;;2.30;;
77948;SDS011;67146;51.236;-0.336;2023-04-15T04:11:46;8.13;;;2.57;;
77948;SDS011;67146;51.236;-0.336;2023-04-15T04:14:11;7.33;;;2.43;;
77948;SDS011;67146;51.236;-0.336;2023-04-15T04:16:36;6.60;;;2.27;;
77948;SDS011;67146;51.236;-0.336;2023-04-15T04:19:02;6.37;;;1.80;;
77948;SDS011;67146;51.236;-0.336;2023-04-15T04:21:27;6.75;;;2.28;;
77948;SDS011;67146;51.236;-0.336;2023-04-15T04:23:52;7.27;;;2.47;;
77948;SDS011;67146;51.236;-0.336;2023-04-15T04:26:18;8.70;;;2.70;;
77948;SDS011;67146;51.236;-0.336;2023-04-15T04:28:43;7.55;;;2.78;;
77948;SDS011;67146;51.236;-0.336;2023-04-15T04:31:09;8.75;;;2.97;;
77948;SDS011;67146;51.236;-0.336;2023-04-15T04:33:34;8.27;;;3.08;;
77948;SDS011;67146;51.236;-0.336;2023-04-15T04:36:00;10.57;;;3.17;;
77948;SDS011;67146;51.236;-0.336;2023-04-15T04:38:25;8.32;;;2.88;;
77948;SDS011;67146;51.236;-0.336;2023-04-15T04:40:51;8.30;;;2.90;;
77948;SDS011;67146;51.236;-0.336;2023-04-15T04:43:16;8.07;;;3.20;;
77948;SDS011;67146;51.236;-0.336;2023-04-15T04:45:42;8.63;;;2.83;;
77948;SDS011;67146;51.236;-0.336;2023-04-15T04:48:07;9.67;;;3.00;;
77948;SDS011;67146;51.236;-0.336;2023-04-15T04:50:34;10.68;;;3.40;;
77948;SDS011;67146;51.236;-0.336;2023-04-15T04:53:00;9.90;;;4.13;;
77948;SDS011;67146;51.236;-0.336;2023-04-15T04:55:26;10.30;;;3.97;;
77948;SDS011;67146;51.236;-0.336;2023-04-15T04:57:53;9.10;;;2.83;;
77948;SDS011;67146;51.236;-0.336;2023-04-15T05:00:18;10.65;;;3.95;;
77948;SDS011;67146;51.236;-0.336;2023-04-15T05:02:44;8.88;;;2.78;;
77948;SDS011;67146;51.236;-0.336;2023-04-15T05:05:09;10.02;;;3.67;;
77948;SDS011;67146;51.236;-0.336;2023-04-15T05:07:36;10.32;;;3.83;;
77948;SDS011;67146;51.236;-0.336;2023-04-15T05:10:02;9.88;;;3.67;;
77948;SDS011;67146;51.236;-0.336;2023-04-15T05:12:27;11.75;;;3.90;;
77948;SDS011;67146;51.236;-0.336;2023-04-15T05:14:52;9.32;;;3.50;;
77948;SDS011;67146;51.236;-0.336;2023-04-15T05:17:18;9.77;;;3.33;;
77948;SDS011;67146;51.236;-0.336;2023-04-15T05:19:43;10.93;;;3.73;;
77948;SDS011;67146;51.236;-0.336;2023-04-15T05:22:08;10.80;;;4.32;;
77948;SDS011;67146;51.236;-0.336;2023-04-15T05:24:34;11.43;;;3.80;;
77948;SDS011;67146;51.236;-0.336;2023-04-15T05:26:59;11.60;;;4.43;;
77948;SDS011;67146;51.236;-0.336;2023-04-15T05:29:26;10.57;;;4.18;;
77948;SDS011;67146;51.236;-0.336;2023-04-15T05:31:51;10.70;;;4.70;;
77948;SDS011;67146;51.236;-0.336;2023-04-15T05:34:16;9.90;;;4.00;;
77948;SDS011;67146;51.236;-0.336;2023-04-15T05:36:42;11.27;;;4.32;;
77948;SDS011;67146;51.236;-0.336;2023-04-15T05:39:07;10.93;;;4.47;;
77948;SDS011;67146;51.236;-0.336;2023-04-15T05:41:33;12.02;;;4.45;;
77948;SDS011;67146;51.236;-0.336;2023-04-15T05:43:58;11.77;;;4.05;;
77948;SDS011;67146;51.236;-0.336;2023-04-15T05:46:24;11.10;;;3.78;;
77948;SDS011;67146;51.236;-0.336;2023-04-15T05:48:49;11.73;;;4.60;;
77948;SDS011;67146;51.236;-0.336;2023-04-15T05:51:14;12.30;;;4.20;;
77948;SDS011;67146;51.236;-0.336;2023-04-15T05:53:40;9.85;;;3.60;;
77948;SDS011;67146;51.236;-0.336;2023-04-15T05:56:06;10.10;;;3.92;;
77948;SDS011;67146;51.236;-0.336;2023-04-15T05:58:31;12.20;;;4.07;;
77948;SDS011;67146;51.236;-0.336;2023-04-15T06:00:57;9.65;;;3.78;;
77948;SDS011;67146;51.236;-0.336;2023-04-15T06:03:22;14.80;;;4.45;;
77948;SDS011;67146;51.236;-0.336;2023-04-15T06:05:48;9.40;;;4.10;;
77948;SDS011;67146;51.236;-0.336;2023-04-15T06:08:13;8.80;;;3.70;;
77948;SDS011;67146;51.236;-0.336;2023-04-15T06:10:38;75.60;;;9.37;;
77948;SDS011;67146;51.236;-0.336;2023-04-15T06:13:04;10.27;;;4.22;;
77948;SDS011;67146;51.236;-0.336;2023-04-15T06:15:30;10.43;;;4.00;;
77948;SDS011;67146;51.236;-0.336;2023-04-15T06:17:55;10.73;;;4.18;;
77948;SDS011;67146;51.236;-0.336;2023-04-15T06:20:21;10.25;;;3.78;;
77948;SDS011;67146;51.236;-0.336;2023-04-15T06:22:46;12.67;;;5.63;;
77948;SDS011;67146;51.236;-0.336;2023-04-15T06:25:11;10.13;;;4.07;;
77948;SDS011;67146;51.236;-0.336;2023-04-15T06:27:37;10.07;;;4.32;;
77948;SDS011;67146;51.236;-0.336;2023-04-15T06:30:02;9.27;;;3.53;;
77948;SDS011;67146;51.236;-0.336;2023-04-15T06:32:28;10.45;;;4.28;;
77948;SDS011;67146;51.236;-0.336;2023-04-15T06:34:53;11.37;;;4.10;;
77948;SDS011;67146;51.236;-0.336;2023-04-15T06:37:19;10.80;;;3.73;;
77948;SDS011;67146;51.236;-0.336;2023-04-15T06:39:44;9.65;;;4.13;;
77948;SDS011;67146;51.236;-0.336;2023-04-15T06:42:10;8.50;;;3.63;;
77948;SDS011;67146;51.236;-0.336;2023-04-15T06:44:36;9.18;;;3.95;;
77948;SDS011;67146;51.236;-0.336;2023-04-15T06:47:01;9.20;;;3.80;;
77948;SDS011;67146;51.236;-0.336;2023-04-15T06:49:27;12.23;;;3.88;;
77948;SDS011;67146;51.236;-0.336;2023-04-15T06:51:52;9.57;;;3.13;;
77948;SDS011;67146;51.236;-0.336;2023-04-15T06:54:18;6.75;;;2.97;;
77948;SDS011;67146;51.236;-0.336;2023-04-15T06:56:43;8.00;;;2.92;;
77948;SDS011;67146;51.236;-0.336;2023-04-15T06:59:08;7.20;;;2.77;;
77948;SDS011;67146;51.236;-0.336;2023-04-15T07:01:34;6.57;;;2.97;;
77948;SDS011;67146;51.236;-0.336;2023-04-15T07:03:59;7.43;;;3.13;;
77948;SDS011;67146;51.236;-0.336;2023-04-15T07:06:25;6.78;;;3.55;;
77948;SDS011;67146;51.236;-0.336;2023-04-15T07:08:51;7.80;;;2.80;;
77948;SDS011;67146;51.236;-0.336;2023-04-15T07:11:16;7.95;;;2.70;;
77948;SDS011;67146;51.236;-0.336;2023-04-15T07:13:42;7.40;;;2.60;;
77948;SDS011;67146;51.236;-0.336;2023-04-15T07:16:07;7.03;;;2.60;;
77948;SDS011;67146;51.236;-0.336;2023-04-15T07:18:33;7.00;;;2.47;;
77948;SDS011;67146;51.236;-0.336;2023-04-15T07:20:58;6.47;;;2.60;;
77948;SDS011;67146;51.236;-0.336;2023-04-15T07:23:24;6.40;;;2.13;;
77948;SDS011;67146;51.236;-0.336;2023-04-15T07:25:49;8.80;;;2.25;;
77948;SDS011;67146;51.236;-0.336;2023-04-15T07:28:16;7.55;;;3.40;;
77948;SDS011;67146;51.236;-0.336;2023-04-15T07:30:41;9.75;;;3.13;;
77948;SDS011;67146;51.236;-0.336;2023-04-15T07:33:07;6.97;;;2.70;;
77948;SDS011;67146;51.236;-0.336;2023-04-15T07:35:32;8.60;;;3.50;;
77948;SDS011;67146;51.236;-0.336;2023-04-15T07:37:57;8.57;;;2.90;;
77948;SDS011;67146;51.236;-0.336;2023-04-15T07:40:23;8.23;;;2.67;;
77948;SDS011;67146;51.236;-0.336;2023-04-15T07:42:48;8.15;;;3.03;;
77948;SDS011;67146;51.236;-0.336;2023-04-15T07:45:14;9.00;;;3.58;;
77948;SDS011;67146;51.236;-0.336;2023-04-15T07:47:40;7.20;;;2.90;;
77948;SDS011;67146;51.236;-0.336;2023-04-15T07:50:06;7.38;;;2.70;;
77948;SDS011;67146;51.236;-0.336;2023-04-15T07:52:33;8.27;;;3.97;;
77948;SDS011;67146;51.236;-0.336;2023-04-15T07:55:03;7.65;;;2.80;;
77948;SDS011;67146;51.236;-0.336;2023-04-15T07:57:30;7.20;;;2.55;;
77948;SDS011;67146;51.236;-0.336;2023-04-15T07:59:55;7.63;;;2.97;;
77948;SDS011;67146;51.236;-0.336;2023-04-15T08:02:20;7.83;;;2.93;;
77948;SDS011;67146;51.236;-0.336;2023-04-15T08:04:46;6.85;;;2.42;;
77948;SDS011;67146;51.236;-0.336;2023-04-15T08:07:11;7.90;;;2.58;;
77948;SDS011;67146;51.236;-0.336;2023-04-15T08:09:37;8.18;;;3.22;;
77948;SDS011;67146;51.236;-0.336;2023-04-15T08:12:03;6.97;;;2.35;;
77948;SDS011;67146;51.236;-0.336;2023-04-15T08:14:28;6.60;;;3.13;;
77948;SDS011;67146;51.236;-0.336;2023-04-15T08:16:54;7.78;;;2.38;;
77948;SDS011;67146;51.236;-0.336;2023-04-15T08:19:19;7.15;;;2.60;;
77948;SDS011;67146;51.236;-0.336;2023-04-15T08:21:45;7.57;;;2.25;;
77948;SDS011;67146;51.236;-0.336;2023-04-15T08:24:10;9.48;;;2.72;;
77948;SDS011;67146;51.236;-0.336;2023-04-15T08:26:36;7.95;;;2.63;;
77948;SDS011;67146;51.236;-0.336;2023-04-15T08:29:02;7.68;;;2.70;;
77948;SDS011;67146;51.236;-0.336;2023-04-15T08:31:28;8.40;;;2.95;;
77948;SDS011;67146;51.236;-0.336;2023-04-15T08:33:55;8.23;;;2.83;;
77948;SDS011;67146;51.236;-0.336;2023-04-15T08:36:21;6.90;;;2.40;;
77948;SDS011;67146;51.236;-0.336;2023-04-15T08:38:46;7.73;;;3.10;;
77948;SDS011;67146;51.236;-0.336;2023-04-15T08:41:33;7.15;;;3.15;;
77948;SDS011;67146;51.236;-0.336;2023-04-15T08:44:04;6.97;;;2.45;;
77948;SDS011;67146;51.236;-0.336;2023-04-15T08:46:31;6.90;;;2.70;;
77948;SDS011;67146;51.236;-0.336;2023-04-15T08:48:58;6.30;;;2.33;;
77948;SDS011;67146;51.236;-0.336;2023-04-15T08:51:24;6.43;;;2.47;;
77948;SDS011;67146;51.236;-0.336;2023-04-15T08:53:51;6.20;;;2.17;;
77948;SDS011;67146;51.236;-0.336;2023-04-15T08:56:17;7.55;;;2.58;;
77948;SDS011;67146;51.236;-0.336;2023-04-15T08:58:43;8.25;;;2.45;;
77948;SDS011;67146;51.236;-0.336;2023-04-15T09:01:10;7.15;;;2.65;;
77948;SDS011;67146;51.236;-0.336;2023-04-15T09:03:36;7.72;;;2.22;;
77948;SDS011;67146;51.236;-0.336;2023-04-15T09:06:03;6.90;;;1.88;;
77948;SDS011;67146;51.236;-0.336;2023-04-15T09:08:30;5.97;;;2.05;;
77948;SDS011;67146;51.236;-0.336;2023-04-15T09:10:55;7.03;;;2.25;;
77948;SDS011;67146;51.236;-0.336;2023-04-15T09:13:21;7.03;;;2.33;;
77948;SDS011;67146;51.236;-0.336;2023-04-15T09:15:46;7.18;;;2.70;;
77948;SDS011;67146;51.236;-0.336;2023-04-15T09:18:12;5.93;;;2.22;;
77948;SDS011;67146;51.236;-0.336;2023-04-15T09:20:39;6.75;;;2.63;;
77948;SDS011;67146;51.236;-0.336;2023-04-15T09:23:12;6.65;;;2.40;;
77948;SDS011;67146;51.236;-0.336;2023-04-15T09:25:41;5.65;;;3.22;;
77948;SDS011;67146;51.236;-0.336;2023-04-15T09:28:07;6.25;;;2.53;;
77948;SDS011;67146;51.236;-0.336;2023-04-15T09:30:32;5.82;;;2.20;;
77948;SDS011;67146;51.236;-0.336;2023-04-15T09:32:59;5.85;;;2.13;;
77948;SDS011;67146;51.236;-0.336;2023-04-15T09:35:35;6.28;;;3.08;;
77948;SDS011;67146;51.236;-0.336;2023-04-15T09:38:02;6.00;;;2.20;;
77948;SDS011;67146;51.236;-0.336;2023-04-15T09:43:01;5.22;;;1.90;;
77948;SDS011;67146;51.236;-0.336;2023-04-15T09:45:31;4.38;;;1.77;;
77948;SDS011;67146;51.236;-0.336;2023-04-15T09:47:58;5.13;;;1.88;;
77948;SDS011;67146;51.236;-0.336;2023-04-15T09:50:27;5.13;;;1.92;;
77948;SDS011;67146;51.236;-0.336;2023-04-15T09:55:18;6.53;;;2.13;;
77948;SDS011;67146;51.236;-0.336;2023-04-15T09:57:44;5.15;;;2.10;;
77948;SDS011;67146;51.236;-0.336;2023-04-15T10:00:11;5.63;;;2.08;;
77948;SDS011;67146;51.236;-0.336;2023-04-15T10:02:38;5.70;;;1.95;;
77948;SDS011;67146;51.236;-0.336;2023-04-15T10:05:04;4.70;;;1.67;;
77948;SDS011;67146;51.236;-0.336;2023-04-15T10:07:31;5.88;;;2.13;;
77948;SDS011;67146;51.236;-0.336;2023-04-15T10:09:56;4.80;;;1.55;;
77948;SDS011;67146;51.236;-0.336;2023-04-15T10:12:23;5.53;;;1.48;;
77948;SDS011;67146;51.236;-0.336;2023-04-15T10:14:51;4.82;;;1.77;;
77948;SDS011;67146;51.236;-0.336;2023-04-15T10:17:20;5.32;;;2.17;;
77948;SDS011;67146;51.236;-0.336;2023-04-15T10:19:49;4.10;;;1.40;;
77948;SDS011;67146;51.236;-0.336;2023-04-15T10:22:18;4.45;;;1.70;;
77948;SDS011;67146;51.236;-0.336;2023-04-15T10:24:43;5.37;;;1.53;;
77948;SDS011;67146;51.236;-0.336;2023-04-15T10:27:09;6.20;;;1.85;;
77948;SDS011;67146;51.236;-0.336;2023-04-15T10:29:35;4.43;;;1.67;;
77948;SDS011;67146;51.236;-0.336;2023-04-15T10:32:00;5.53;;;1.23;;
77948;SDS011;67146;51.236;-0.336;2023-04-15T10:34:27;4.53;;;1.75;;
77948;SDS011;67146;51.236;-0.336;2023-04-15T10:36:58;4.25;;;1.40;;
77948;SDS011;67146;51.236;-0.336;2023-04-15T10:42:08;4.88;;;1.25;;
77948;SDS011;67146;51.236;-0.336;2023-04-15T10:44:35;5.57;;;1.80;;
77948;SDS011;67146;51.236;-0.336;2023-04-15T10:47:09;5.53;;;1.92;;
77948;SDS011;67146;51.236;-0.336;2023-04-15T10:49:41;5.20;;;1.58;;
77948;SDS011;67146;51.236;-0.336;2023-04-15T10:52:09;4.57;;;1.88;;
77948;SDS011;67146;51.236;-0.336;2023-04-15T10:54:34;5.20;;;1.80;;
77948;SDS011;67146;51.236;-0.336;2023-04-15T10:59:28;4.97;;;1.87;;
77948;SDS011;67146;51.236;-0.336;2023-04-15T11:02:00;4.88;;;1.50;;
77948;SDS011;67146;51.236;-0.336;2023-04-15T11:07:37;5.75;;;1.90;;
77948;SDS011;67146;51.236;-0.336;2023-04-15T11:12:42;5.15;;;1.83;;
77948;SDS011;67146;51.236;-0.336;2023-04-15T11:15:24;5.57;;;1.75;;
77948;SDS011;67146;51.236;-0.336;2023-04-15T11:17:58;8.82;;;2.13;;
77948;SDS011;67146;51.236;-0.336;2023-04-15T11:20:32;6.75;;;2.08;;
77948;SDS011;67146;51.236;-0.336;2023-04-15T11:22:58;5.35;;;2.20;;
77948;SDS011;67146;51.236;-0.336;2023-04-15T11:27:49;4.30;;;1.50;;
77948;SDS011;67146;51.236;-0.336;2023-04-15T11:30:18;4.78;;;1.70;;
77948;SDS011;67146;51.236;-0.336;2023-04-15T11:32:48;5.28;;;1.90;;
77948;SDS011;67146;51.236;-0.336;2023-04-15T11:35:15;5.95;;;2.05;;
77948;SDS011;67146;51.236;-0.336;2023-04-15T11:37:41;5.40;;;2.50;;
77948;SDS011;67146;51.236;-0.336;2023-04-15T11:40:07;5.15;;;1.55;;
77948;SDS011;67146;51.236;-0.336;2023-04-15T11:42:33;4.38;;;2.03;;
77948;SDS011;67146;51.236;-0.336;2023-04-15T11:45:11;5.13;;;1.77;;
77948;SDS011;67146;51.236;-0.336;2023-04-15T11:47:37;7.50;;;2.17;;
77948;SDS011;67146;51.236;-0.336;2023-04-15T11:52:51;4.72;;;1.60;;
77948;SDS011;67146;51.236;-0.336;2023-04-15T11:55:18;5.70;;;1.58;;
77948;SDS011;67146;51.236;-0.336;2023-04-15T11:57:43;5.85;;;1.65;;
77948;SDS011;67146;51.236;-0.336;2023-04-15T12:00:09;4.82;;;1.75;;
77948;SDS011;67146;51.236;-0.336;2023-04-15T12:02:35;5.88;;;1.75;;
77948;SDS011;67146;51.236;-0.336;2023-04-15T12:05:07;6.43;;;2.05;;
77948;SDS011;67146;51.236;-0.336;2023-04-15T12:07:33;7.07;;;2.42;;
77948;SDS011;67146;51.236;-0.336;2023-04-15T12:09:58;7.25;;;2.67;;
77948;SDS011;67146;51.236;-0.336;2023-04-15T12:12:27;6.35;;;2.60;;
77948;SDS011;67146;51.236;-0.336;2023-04-15T12:14:53;8.05;;;2.60;;
77948;SDS011;67146;51.236;-0.336;2023-04-15T12:17:21;5.40;;;2.20;;
77948;SDS011;67146;51.236;-0.336;2023-04-15T12:19:54;7.13;;;2.33;;
77948;SDS011;67146;51.236;-0.336;2023-04-15T12:22:23;6.95;;;2.65;;
77948;SDS011;67146;51.236;-0.336;2023-04-15T12:24:53;9.18;;;3.15;;
77948;SDS011;67146;51.236;-0.336;2023-04-15T12:27:24;7.80;;;2.25;;
77948;SDS011;67146;51.236;-0.336;2023-04-15T12:29:50;6.18;;;2.42;;
77948;SDS011;67146;51.236;-0.336;2023-04-15T12:32:28;8.27;;;3.83;;
77948;SDS011;67146;51.236;-0.336;2023-04-15T12:34:53;7.40;;;2.90;;
77948;SDS011;67146;51.236;-0.336;2023-04-15T12:37:19;6.38;;;2.10;;
77948;SDS011;67146;51.236;-0.336;2023-04-15T12:39:45;6.90;;;2.70;;
77948;SDS011;67146;51.236;-0.336;2023-04-15T12:42:13;9.20;;;2.90;;
77948;SDS011;67146;51.236;-0.336;2023-04-15T12:44:39;6.63;;;2.53;;
77948;SDS011;67146;51.236;-0.336;2023-04-15T12:47:04;7.57;;;2.78;;
77948;SDS011;67146;51.236;-0.336;2023-04-15T12:49:31;5.63;;;2.20;;
77948;SDS011;67146;51.236;-0.336;2023-04-15T12:51:57;7.82;;;2.80;;
77948;SDS011;67146;51.236;-0.336;2023-04-15T12:54:24;5.55;;;2.22;;
77948;SDS011;67146;51.236;-0.336;2023-04-15T12:56:50;4.78;;;2.50;;
77948;SDS011;67146;51.236;-0.336;2023-04-15T12:59:16;7.90;;;4.38;;
77948;SDS011;67146;51.236;-0.336;2023-04-15T13:01:42;7.90;;;2.78;;
77948;SDS011;67146;51.236;-0.336;2023-04-15T13:04:08;8.70;;;2.83;;
77948;SDS011;67146;51.236;-0.336;2023-04-15T13:06:33;6.17;;;2.90;;
77948;SDS011;67146;51.236;-0.336;2023-04-15T13:08:59;5.40;;;2.30;;
77948;SDS011;67146;51.236;-0.336;2023-04-15T13:11:25;7.50;;;2.60;;
77948;SDS011;67146;51.236;-0.336;2023-04-15T13:13:53;7.50;;;3.10;;
77948;SDS011;67146;51.236;-0.336;2023-04-15T13:16:18;8.48;;;3.00;;
77948;SDS011;67146;51.236;-0.336;2023-04-15T13:18:44;5.82;;;2.33;;
77948;SDS011;67146;51.236;-0.336;2023-04-15T13:21:11;6.72;;;2.40;;
77948;SDS011;67146;51.236;-0.336;2023-04-15T13:23:36;5.10;;;2.05;;
77948;SDS011;67146;51.236;-0.336;2023-04-15T13:26:01;6.97;;;2.10;;
77948;SDS011;67146;51.236;-0.336;2023-04-15T13:28:27;8.07;;;2.60;;
77948;SDS011;67146;51.236;-0.336;2023-04-15T13:30:52;6.35;;;2.60;;
77948;SDS011;67146;51.236;-0.336;2023-04-15T13:33:18;6.68;;;3.10;;
77948;SDS011;67146;51.236;-0.336;2023-04-15T13:35:43;6.87;;;2.40;;
77948;SDS011;67146;51.236;-0.336;2023-04-15T13:38:08;6.78;;;2.50;;
77948;SDS011;67146;51.236;-0.336;2023-04-15T13:40:34;6.15;;;2.28;;
77948;SDS011;67146;51.236;-0.336;2023-04-15T13:42:59;7.05;;;2.70;;
77948;SDS011;67146;51.236;-0.336;2023-04-15T13:45:26;6.15;;;2.03;;
77948;SDS011;67146;51.236;-0.336;2023-04-15T13:47:51;5.68;;;2.80;;
77948;SDS011;67146;51.236;-0.336;2023-04-15T13:50:17;6.50;;;2.67;;
77948;SDS011;67146;51.236;-0.336;2023-04-15T13:52:42;6.43;;;2.17;;
77948;SDS011;67146;51.236;-0.336;2023-04-15T13:55:09;5.20;;;1.95;;
77948;SDS011;67146;51.236;-0.336;2023-04-15T13:57:35;7.05;;;2.40;;
77948;SDS011;67146;51.236;-0.336;2023-04-15T14:00:00;8.40;;;2.03;;
77948;SDS011;67146;51.236;-0.336;2023-04-15T14:02:26;8.13;;;2.20;;
77948;SDS011;67146;51.236;-0.336;2023-04-15T14:04:51;5.93;;;2.30;;
77948;SDS011;67146;51.236;-0.336;2023-04-15T14:07:17;6.57;;;2.37;;
77948;SDS011;67146;51.236;-0.336;2023-04-15T14:09:42;7.50;;;2.58;;
77948;SDS011;67146;51.236;-0.336;2023-04-15T14:12:08;6.53;;;2.72;;
77948;SDS011;67146;51.236;-0.336;2023-04-15T14:14:35;6.35;;;2.50;;
77948;SDS011;67146;51.236;-0.336;2023-04-15T14:17:01;8.07;;;2.47;;
77948;SDS011;67146;51.236;-0.336;2023-04-15T14:19:27;6.18;;;2.13;;
77948;SDS011;67146;51.236;-0.336;2023-04-15T14:21:54;6.03;;;3.22;;
77948;SDS011;67146;51.236;-0.336;2023-04-15T14:24:19;6.72;;;2.08;;
77948;SDS011;67146;51.236;-0.336;2023-04-15T14:26:45;5.50;;;2.13;;
77948;SDS011;67146;51.236;-0.336;2023-04-15T14:29:10;5.75;;;2.38;;
77948;SDS011;67146;51.236;-0.336;2023-04-15T14:31:36;6.07;;;2.47;;
77948;SDS011;67146;51.236;-0.336;2023-04-15T14:34:01;7.85;;;2.80;;
77948;SDS011;67146;51.236;-0.336;2023-04-15T14:36:27;8.83;;;2.30;;
77948;SDS011;67146;51.236;-0.336;2023-04-15T14:38:52;6.13;;;2.17;;
77948;SDS011;67146;51.236;-0.336;2023-04-15T14:41:17;6.00;;;1.90;;
77948;SDS011;67146;51.236;-0.336;2023-04-15T14:43:43;5.93;;;2.00;;
77948;SDS011;67146;51.236;-0.336;2023-04-15T14:46:09;6.10;;;2.17;;